Погода Зиталана 2 недели

Герреро, Мексика

27 февраля-11 марта
  • 27февраля
    Сегодня
    +16°
    +33°
    Практически безоблачно
    ВремяПогодаТемператураВлажностьДавлениеВетер, м/сВероятность осадков
    00:00Ясно и безоблачно+20°C80 %615 мм2.2 м/с1 %
    03:00Ясно и безоблачно+19°C69 %613 мм0.3 м/с1 %
    06:00Ясно и безоблачно+21°C58 %614 мм1.0 м/с1 %
    09:00Ясно и безоблачно+21°C46 %616 мм0.8 м/с1 %
    12:00Ясно и безоблачно+30°C30 %618 мм0.6 м/с1 %
    15:00Практически безоблачно+33°C31 %617 мм2.0 м/с1 %
    18:00Ясно и безоблачно+26°C62 %615 мм4.2 м/с1 %
    21:00Ясно и безоблачно+21°C81 %615 мм3.4 м/с1 %
  • 28февраля
    Среда
    +18°
    +34°
    Практически безоблачно
    ВремяПогодаТемператураВлажностьДавлениеВетер, м/сВероятность осадков
    00:00Ясно и безоблачно+18°C79 %613 мм2.6 м/с1 %
    03:00Ясно и безоблачно+18°C80 %613 мм2.4 м/с1 %
    06:00Ясно и безоблачно+18°C84 %612 мм1.1 м/с1 %
    09:00Ясно и безоблачно+21°C50 %615 мм0.6 м/с1 %
    12:00Ясно и безоблачно+30°C32 %618 мм1.0 м/с1 %
    15:00Практически безоблачно+33°C30 %617 мм2.1 м/с2 %
    18:00Ясно и безоблачно+27°C61 %616 мм4.1 м/с3 %
    21:00Ясно и безоблачно+21°C84 %615 мм3.5 м/с1 %
  • 29февраля
    Четверг
    +16°
    +33°
    Практически безоблачно
    ВремяПогодаТемператураВлажностьДавлениеВетер, м/сВероятность осадков
    00:00Ясно и безоблачно+18°C87 %615 мм2.5 м/с1 %
    03:00Ясно и безоблачно+19°C85 %614 мм2.0 м/с1 %
    06:00Ясно и безоблачно+19°C77 %614 мм0.5 м/с1 %
    09:00Ясно и безоблачно+20°C52 %616 мм0.5 м/с1 %
    12:00Ясно и безоблачно+30°C32 %619 мм0.1 м/с1 %
    15:00Практически безоблачно+32°C26 %618 мм3.2 м/с1 %
    18:00Ясно и безоблачно+27°C44 %617 мм4.2 м/с1 %
    21:00Практически безоблачно+22°C65 %617 мм3.5 м/с1 %
  • 01марта
    Пятница
    +17°
    +33°
    Облачно с прояснениями
    ВремяПогодаТемператураВлажностьДавлениеВетер, м/сВероятность осадков
    00:00Облачно с прояснениями+19°C66 %616 мм2.8 м/с1 %
    03:00Практически безоблачно+19°C61 %615 мм2.2 м/с1 %
    06:00Небольшая облачность+18°C62 %614 мм1.0 м/с1 %
    09:00Ясно и безоблачно+21°C48 %617 мм0.5 м/с1 %
    12:00Небольшая облачность+30°C31 %620 мм1.5 м/с1 %
    15:00Облачно с прояснениями+32°C28 %618 мм3.0 м/с1 %
    18:00Облачно с прояснениями+27°C42 %617 мм4.2 м/с1 %
    21:00Практически безоблачно+22°C57 %617 мм3.0 м/с1 %
  • 02марта
    Суббота
    +17°
    +33°
    Ясно и безоблачно
    ВремяПогодаТемператураВлажностьДавлениеВетер, м/сВероятность осадков
    00:00Ясно и безоблачно+19°C65 %615 мм2.6 м/с1 %
    03:00Ясно и безоблачно+19°C63 %615 мм2.0 м/с1 %
    06:00Ясно и безоблачно+18°C69 %614 мм1.1 м/с1 %
    09:00Ясно и безоблачно+21°C49 %616 мм0.2 м/с1 %
    12:00Ясно и безоблачно+30°C28 %619 мм1.2 м/с1 %
    15:00Ясно и безоблачно+32°C27 %617 мм3.4 м/с1 %
    18:00Ясно и безоблачно+27°C44 %616 мм4.5 м/с1 %
    21:00Ясно и безоблачно+21°C62 %616 мм3.1 м/с1 %
Мы используем cookies
Соглашаюсь